Time;durP1;ratioP1;P1;durP2;ratioP2;P2;SDS_P1;SDS_P2;PMS_P1;PMS_P2;Temp;Humidity;BMP_temperature;BMP_pressure;BME280_temperature;BME280_humidity;BME280_pressure;Samples;Min_cycle;Max_cycle;Signal;HPM_P1;HPM_P2
2021/04/01 00:01:51;;;;;;;11.37;7.63;;;11.80;99.90;;;;;;5115656;28;20172;-68
2021/04/01 00:04:17;;;;;;;16.23;9.13;;;11.90;99.90;;;;;;5115524;28;20621;-67
2021/04/01 00:06:42;;;;;;;14.60;8.37;;;11.80;99.90;;;;;;5117210;28;20172;-67
2021/04/01 00:09:08;;;;;;;14.00;9.03;;;11.80;99.90;;;;;;5116721;28;20207;-69
2021/04/01 00:11:34;;;;;;;10.43;8.00;;;11.80;99.90;;;;;;5117062;28;20294;-66
2021/04/01 00:14:04;;;;;;;12.75;9.70;;;11.70;99.90;;;;;;5116646;28;20665;-67
2021/04/01 00:16:32;;;;;;;12.20;8.05;;;11.70;99.90;;;;;;5116797;28;20176;-67
2021/04/01 00:18:59;;;;;;;15.65;9.23;;;11.70;99.90;;;;;;5098240;28;20200;-67
2021/04/01 00:21:24;;;;;;;14.40;9.05;;;11.60;99.90;;;;;;5116918;28;20172;-67
2021/04/01 00:23:50;;;;;;;14.20;8.90;;;11.60;99.90;;;;;;5116439;28;20290;-67
2021/04/01 00:26:15;;;;;;;12.57;7.70;;;11.50;99.90;;;;;;5115326;28;20180;-67
2021/04/01 00:28:41;;;;;;;14.73;8.90;;;11.50;99.90;;;;;;5116311;28;20198;-67
2021/04/01 00:31:06;;;;;;;18.23;8.70;;;11.40;99.90;;;;;;5116240;28;20264;-66
2021/04/01 00:33:32;;;;;;;11.13;7.70;;;11.40;99.90;;;;;;5116337;28;20187;-67
2021/04/01 00:35:58;;;;;;;11.80;7.70;;;11.40;99.90;;;;;;5116553;28;20206;-67
2021/04/01 00:38:24;;;;;;;12.90;7.50;;;11.30;99.90;;;;;;5115486;28;20455;-67
2021/04/01 00:40:49;;;;;;;12.43;8.13;;;11.30;99.90;;;;;;5097529;28;20171;-67
2021/04/01 00:43:15;;;;;;;8.03;6.33;;;11.30;99.90;;;;;;5116172;28;20282;-68
2021/04/01 00:45:40;;;;;;;14.77;10.90;;;11.30;99.90;;;;;;5114874;28;20218;-67
2021/04/01 00:48:06;;;;;;;13.70;9.00;;;11.40;99.90;;;;;;5114790;28;20724;-67
2021/04/01 00:50:32;;;;;;;11.03;6.80;;;11.30;99.90;;;;;;5116050;28;20219;-68
2021/04/01 00:52:59;;;;;;;12.90;9.00;;;11.30;99.90;;;;;;5115913;28;20439;-67
2021/04/01 00:55:25;;;;;;;13.65;9.07;;;11.20;99.90;;;;;;5116057;28;20183;-66
2021/04/01 00:57:53;;;;;;;19.38;8.70;;;11.20;99.90;;;;;;5115772;28;20200;-67
2021/04/01 01:00:26;;;;;;;14.30;8.63;;;11.20;99.90;;;;;;5097452;28;20541;-67
2021/04/01 01:02:52;;;;;;;16.52;9.60;;;11.20;99.90;;;;;;5097536;28;20222;-67
2021/04/01 01:05:19;;;;;;;13.05;8.60;;;11.20;99.90;;;;;;5115794;28;20174;-67
2021/04/01 01:07:44;;;;;;;18.75;9.85;;;11.20;99.90;;;;;;5115679;28;20167;-68
2021/04/01 01:10:16;;;;;;;12.70;9.00;;;11.20;99.90;;;;;;5097290;28;20225;-67
2021/04/01 01:12:42;;;;;;;13.05;7.57;;;11.10;99.90;;;;;;5115445;28;20627;-67
2021/04/01 01:15:10;;;;;;;15.47;9.97;;;11.20;99.90;;;;;;5115522;28;20247;-66
2021/04/01 01:17:36;;;;;;;10.80;9.45;;;11.20;99.90;;;;;;5115327;28;20396;-67
2021/04/01 01:20:05;;;;;;;17.42;9.57;;;11.10;99.90;;;;;;5115391;28;20174;-67
2021/04/01 01:22:32;;;;;;;14.00;9.25;;;11.00;99.90;;;;;;5115322;28;20200;-66
2021/04/01 01:24:58;;;;;;;15.05;9.85;;;11.10;99.90;;;;;;5115383;28;20633;-67
2021/04/01 01:27:23;;;;;;;12.50;8.87;;;11.20;99.90;;;;;;5113992;28;20180;-68
2021/04/01 01:29:49;;;;;;;14.00;9.60;;;11.10;99.90;;;;;;5096667;28;20188;-67
2021/04/01 01:32:16;;;;;;;17.47;10.30;;;11.00;99.90;;;;;;5096841;28;20179;-68
2021/04/01 01:34:43;;;;;;;17.08;9.88;;;11.00;99.90;;;;;;5115032;28;20201;-66
2021/04/01 01:37:09;;;;;;;15.52;9.25;;;11.00;99.90;;;;;;5115042;28;20175;-68
2021/04/01 01:39:35;;;;;;;16.00;9.03;;;10.90;99.90;;;;;;5114944;28;20199;-67
2021/04/01 01:42:02;;;;;;;13.33;9.63;;;10.90;99.90;;;;;;5097028;28;20436;-67
2021/04/01 01:44:28;;;;;;;15.27;8.55;;;10.90;99.90;;;;;;5114845;28;20483;-67
2021/04/01 01:46:54;;;;;;;14.00;10.00;;;10.80;99.90;;;;;;5114844;28;20258;-67
2021/04/01 01:49:19;;;;;;;13.90;10.27;;;10.70;99.90;;;;;;5115104;28;20199;-67
2021/04/01 01:51:45;;;;;;;16.63;10.73;;;10.60;99.90;;;;;;5114755;28;20215;-66
2021/04/01 01:54:11;;;;;;;13.63;9.20;;;10.60;99.90;;;;;;5114744;28;20256;-67
2021/04/01 01:56:36;;;;;;;11.50;8.43;;;10.60;99.90;;;;;;5115092;28;20170;-68
2021/04/01 01:59:03;;;;;;;16.47;10.43;;;10.60;99.90;;;;;;5114585;28;20424;-67
2021/04/01 02:01:29;;;;;;;16.40;9.48;;;10.60;99.90;;;;;;5114940;28;20164;-68
2021/04/01 02:03:54;;;;;;;11.27;9.40;;;10.60;99.90;;;;;;5096206;28;20618;-68
2021/04/01 02:06:21;;;;;;;13.53;8.57;;;10.60;99.90;;;;;;5113483;28;20199;-66
2021/04/01 02:08:48;;;;;;;14.18;9.05;;;10.60;99.90;;;;;;5114447;28;20236;-68
2021/04/01 02:11:17;;;;;;;13.65;9.52;;;10.50;99.90;;;;;;5114800;28;20207;-68
2021/04/01 02:13:43;;;;;;;13.52;8.90;;;10.50;99.90;;;;;;5114296;28;20592;-68
2021/04/01 02:16:09;;;;;;;15.30;9.00;;;10.50;99.90;;;;;;5114338;28;20175;-68
2021/04/01 02:18:34;;;;;;;12.67;9.03;;;10.30;99.90;;;;;;5114312;28;20759;-67
2021/04/01 02:21:01;;;;;;;13.50;10.03;;;10.30;99.90;;;;;;5096223;28;20164;-67
2021/04/01 02:23:31;;;;;;;11.90;9.40;;;10.30;99.90;;;;;;5114232;28;20428;-67
2021/04/01 02:25:58;;;;;;;15.75;10.35;;;10.30;99.90;;;;;;5096364;28;20270;-67
2021/04/01 02:28:27;;;;;;;16.58;9.55;;;10.30;99.90;;;;;;5114261;28;20204;-67
2021/04/01 02:30:55;;;;;;;13.60;10.25;;;10.30;99.90;;;;;;5114329;28;20203;-68
2021/04/01 02:33:23;;;;;;;15.75;9.77;;;10.30;99.90;;;;;;5114176;28;20199;-67
2021/04/01 02:35:49;;;;;;;14.20;8.60;;;10.20;99.90;;;;;;5114349;28;20632;-67
2021/04/01 02:38:14;;;;;;;12.03;9.40;;;10.10;99.90;;;;;;5114089;28;20204;-68
2021/04/01 02:40:41;;;;;;;11.67;8.83;;;10.10;99.90;;;;;;5114315;28;20180;-68
2021/04/01 02:43:07;;;;;;;17.23;10.48;;;10.10;99.90;;;;;;5095797;28;20203;-67
2021/04/01 02:45:34;;;;;;;13.73;9.30;;;10.00;99.90;;;;;;5114083;28;20183;-68
2021/04/01 02:47:59;;;;;;;16.92;10.43;;;10.00;99.90;;;;;;5113746;28;20227;-67
2021/04/01 02:50:25;;;;;;;15.73;10.30;;;10.10;99.90;;;;;;5113992;28;20221;-68
2021/04/01 02:52:51;;;;;;;23.45;11.30;;;10.10;99.90;;;;;;5113951;28;20756;-68
2021/04/01 02:55:18;;;;;;;12.13;9.27;;;10.00;99.90;;;;;;5095730;28;20196;-68
2021/04/01 02:57:44;;;;;;;16.48;10.40;;;10.00;99.90;;;;;;5113936;28;20964;-67
2021/04/01 03:00:13;;;;;;;16.50;10.33;;;10.00;99.90;;;;;;5113989;28;20301;-68
2021/04/01 03:02:44;;;;;;;16.25;11.20;;;10.00;99.90;;;;;;5096982;28;20203;-67
2021/04/01 03:05:11;;;;;;;16.25;10.75;;;10.10;99.90;;;;;;5118104;28;20632;-68
2021/04/01 03:07:39;;;;;;;17.33;10.00;;;10.20;99.90;;;;;;5099626;28;20696;-67
2021/04/01 03:10:06;;;;;;;17.75;10.55;;;10.10;99.90;;;;;;5117742;28;20203;-67
2021/04/01 03:12:32;;;;;;;15.93;10.63;;;10.10;99.90;;;;;;5117772;28;20171;-67
2021/04/01 03:14:57;;;;;;;15.60;12.00;;;10.00;99.90;;;;;;5117837;28;20186;-66
2021/04/01 03:17:23;;;;;;;15.27;10.97;;;10.00;99.90;;;;;;5117910;28;20175;-66
2021/04/01 03:19:49;;;;;;;16.70;11.37;;;10.00;99.90;;;;;;5117540;28;20286;-68
2021/04/01 03:22:14;;;;;;;21.00;13.20;;;10.00;99.90;;;;;;5117766;28;20561;-67
2021/04/01 03:24:40;;;;;;;14.10;11.40;;;9.90;99.90;;;;;;5117671;28;20275;-69
2021/04/01 03:27:06;;;;;;;15.73;10.40;;;10.00;99.90;;;;;;5118272;28;20180;-67
2021/04/01 03:29:32;;;;;;;19.33;11.57;;;10.00;99.90;;;;;;5117536;28;20230;-67
2021/04/01 03:31:58;;;;;;;15.73;9.93;;;10.10;99.90;;;;;;5117963;28;20233;-67
2021/04/01 03:34:24;;;;;;;14.35;10.65;;;9.90;99.90;;;;;;5117414;28;20203;-67
2021/04/01 03:36:50;;;;;;;22.40;12.90;;;9.90;99.90;;;;;;5117007;28;20175;-67
2021/04/01 03:39:16;;;;;;;17.67;10.60;;;10.10;99.90;;;;;;5099100;28;20569;-66
2021/04/01 03:41:42;;;;;;;19.77;10.75;;;10.30;99.90;;;;;;5099201;28;20633;-67
2021/04/01 03:44:08;;;;;;;14.70;10.20;;;10.30;99.90;;;;;;5117206;28;20252;-67
2021/04/01 03:46:35;;;;;;;15.20;10.52;;;10.30;99.90;;;;;;5117348;28;20223;-68
2021/04/01 03:49:01;;;;;;;19.52;11.05;;;10.30;99.90;;;;;;5098945;28;20218;-67
2021/04/01 03:51:26;;;;;;;13.70;10.13;;;10.30;99.90;;;;;;5098957;28;20216;-66
2021/04/01 03:53:52;;;;;;;21.30;11.10;;;10.30;99.90;;;;;;5116987;28;20274;-68
2021/04/01 03:56:17;;;;;;;16.27;11.33;;;10.40;99.90;;;;;;5117438;28;20198;-68
2021/04/01 03:58:59;;;;;;;14.70;9.93;;;10.40;99.90;;;;;;5098673;28;20203;-67
2021/04/01 04:09:55;;;;;;;14.25;9.48;;;10.30;99.90;;;;;;5054123;28;20202;-68
2021/04/01 04:17:28;;;;;;;17.02;10.93;;;10.00;99.90;;;;;;5116908;28;20171;-68
2021/04/01 04:19:53;;;;;;;22.30;13.82;;;9.90;99.90;;;;;;5098263;28;20176;-68
2021/04/01 04:22:19;;;;;;;20.00;13.20;;;9.90;99.90;;;;;;5098287;28;20637;-68
2021/04/01 04:24:45;;;;;;;18.87;12.20;;;9.90;99.90;;;;;;5116320;28;20195;-66
2021/04/01 04:27:32;;;;;;;14.30;11.90;;;9.90;99.90;;;;;;5116717;28;20529;-68
2021/04/01 04:29:59;;;;;;;16.90;10.45;;;9.90;99.90;;;;;;5115903;28;20180;-67
2021/04/01 04:32:33;;;;;;;14.00;10.52;;;9.90;99.90;;;;;;5116150;27;20180;-67
2021/04/01 04:34:59;;;;;;;20.27;10.45;;;10.00;99.90;;;;;;5098048;28;20168;-67
2021/04/01 04:37:24;;;;;;;15.10;10.90;;;10.40;99.90;;;;;;5132161;27;20546;-69
2021/04/01 04:39:50;;;;;;;16.10;10.47;;;10.70;99.90;;;;;;5114868;28;20229;-67
2021/04/01 04:42:16;;;;;;;13.50;9.63;;;11.10;99.90;;;;;;5116699;27;20262;-67
2021/04/01 04:44:42;;;;;;;12.98;8.80;;;11.80;99.90;;;;;;5132724;27;20264;-67
2021/04/01 04:47:08;;;;;;;14.60;8.60;;;12.00;99.90;;;;;;5116107;28;20227;-67
2021/04/01 04:49:33;;;;;;;11.53;8.43;;;12.50;99.90;;;;;;5135761;27;20665;-67
2021/04/01 04:51:59;;;;;;;12.97;11.10;;;12.60;99.90;;;;;;5111374;27;20588;-68
2021/04/01 04:54:28;;;;;;;22.00;10.55;;;12.30;99.90;;;;;;5124027;27;20723;-66
2021/04/01 04:56:55;;;;;;;16.58;8.93;;;12.50;99.90;;;;;;5119170;27;20179;-68
2021/04/01 04:59:35;;;;;;;14.02;10.70;;;12.60;99.90;;;;;;5130400;27;20571;-67
2021/04/01 05:04:47;;;;;;;15.40;9.70;;;13.20;99.90;;;;;;5123573;27;20202;-66
2021/04/01 05:07:13;;;;;;;14.52;8.90;;;13.20;99.90;;;;;;5114699;27;20609;-68
2021/04/01 05:09:38;;;;;;;10.70;9.17;;;13.30;99.90;;;;;;5129058;27;20294;-67
2021/04/01 05:12:05;;;;;;;10.90;8.90;;;13.40;99.90;;;;;;5122613;27;20215;-67
2021/04/01 05:14:30;;;;;;;8.45;7.63;;;13.30;99.90;;;;;;5125334;27;20206;-68
2021/04/01 05:16:56;;;;;;;12.60;9.07;;;13.40;99.90;;;;;;5114826;27;20183;-67
2021/04/01 05:19:23;;;;;;;13.53;9.70;;;13.40;99.90;;;;;;5117289;27;20279;-67
2021/04/01 05:24:47;;;;;;;12.80;9.73;;;10.90;99.90;;;;;;5083975;27;20740;-66
2021/04/01 05:29:40;;;;;;;16.67;11.13;;;10.20;99.90;;;;;;5114787;27;20918;-67
2021/04/01 05:32:06;;;;;;;14.02;10.45;;;10.20;99.90;;;;;;5106785;27;20206;-67
2021/04/01 05:34:33;;;;;;;13.15;9.27;;;10.30;99.90;;;;;;5122050;27;20209;-66
2021/04/01 05:37:00;;;;;;;15.88;9.43;;;10.30;99.90;;;;;;5126270;27;20308;-68
2021/04/01 05:39:45;;;;;;;16.17;10.10;;;10.60;99.90;;;;;;5113655;27;20293;-68
2021/04/01 05:42:12;;;;;;;13.38;9.85;;;10.70;99.90;;;;;;5126914;27;20188;-66
2021/04/01 05:44:42;;;;;;;14.05;9.65;;;10.90;99.90;;;;;;5100887;27;20359;-67
2021/04/01 05:47:15;;;;;;;19.85;13.13;;;11.00;99.90;;;;;;5122588;27;20228;-68
2021/04/01 05:55:44;;;;;;;17.57;11.40;;;11.60;99.90;;;;;;5122244;27;20210;-66
2021/04/01 06:00:51;;;;;;;15.70;9.77;;;12.00;99.90;;;;;;5119459;27;20190;-66
2021/04/01 06:06:07;;;;;;;19.10;11.32;;;12.40;99.90;;;;;;5123660;27;20181;-67
2021/04/01 06:08:43;;;;;;;14.00;9.23;;;12.70;99.90;;;;;;5112663;27;20212;-67
2021/04/01 06:11:09;;;;;;;13.55;8.65;;;12.80;99.90;;;;;;5117235;27;20258;-67
2021/04/01 06:13:45;;;;;;;13.83;9.47;;;13.00;99.90;;;;;;5127375;27;20579;-65
2021/04/01 06:16:12;;;;;;;15.80;11.47;;;13.10;99.90;;;;;;5133410;27;20186;-67
2021/04/01 06:18:42;;;;;;;13.10;8.68;;;13.20;99.90;;;;;;5098715;28;20504;-66
2021/04/01 06:21:11;;;;;;;17.50;9.03;;;13.20;99.90;;;;;;5114471;28;20177;-66
2021/04/01 06:23:40;;;;;;;13.17;9.10;;;13.30;99.90;;;;;;5112901;28;20756;-67
2021/04/01 06:26:14;;;;;;;17.47;10.77;;;13.50;99.90;;;;;;5113370;27;20420;-66
2021/04/01 06:28:50;;;;;;;17.33;10.17;;;13.70;99.90;;;;;;5112037;28;20517;-66
2021/04/01 06:31:23;;;;;;;11.00;8.70;;;14.00;99.90;;;;;;5110913;28;20814;-66
2021/04/01 06:33:51;;;;;;;12.37;8.63;;;14.10;99.90;;;;;;5112181;28;20779;-67
2021/04/01 06:36:22;;;;;;;11.70;7.40;;;14.30;99.90;;;;;;5112137;28;20432;-68
2021/04/01 06:38:48;;;;;;;15.90;12.33;;;14.50;99.90;;;;;;5123424;27;20534;-67
2021/04/01 06:41:29;;;;;;;20.57;13.87;;;14.60;99.90;;;;;;5105697;28;20485;-66
2021/04/01 06:44:22;;;;;;;14.50;10.47;;;14.80;99.90;;;;;;5107147;28;20495;-68
2021/04/01 06:46:49;;;;;;;11.50;8.23;;;15.10;99.90;;;;;;5122080;28;20519;-67
2021/04/01 06:54:33;;;;;;;11.70;7.97;;;15.50;99.90;;;;;;5121414;28;20438;-66
2021/04/01 07:02:54;;;;;;;13.77;7.07;;;16.00;99.90;;;;;;5124146;28;20429;-69
2021/04/01 07:05:35;;;;;;;13.80;7.67;;;16.20;99.90;;;;;;5126996;28;20422;-68
2021/04/01 07:08:06;;;;;;;10.63;7.53;;;16.40;99.90;;;;;;5118406;28;20957;-67
2021/04/01 07:13:14;;;;;;;9.60;7.10;;;16.70;99.90;;;;;;5117606;28;20477;-68
2021/04/01 07:15:44;;;;;;;12.13;9.47;;;16.80;99.90;;;;;;5122156;28;20939;-68
2021/04/01 07:35:28;;;;;;;9.43;6.70;;;18.20;99.90;;;;;;5089039;28;20526;-69
2021/04/01 07:46:31;;;;;;;9.43;7.20;;;18.60;99.90;;;;;;5121633;28;20498;-67
2021/04/01 07:49:03;;;;;;;8.40;6.30;;;18.50;99.90;;;;;;5125668;27;20423;-67
2021/04/01 07:54:09;;;;;;;9.73;5.10;;;18.90;99.90;;;;;;5129081;27;20456;-67
2021/04/01 07:57:02;;;;;;;7.63;6.40;;;19.10;99.90;;;;;;5126875;27;20445;-69
2021/04/01 07:59:49;;;;;;;6.00;4.93;;;19.10;99.90;;;;;;5117069;27;20836;-67
2021/04/01 08:02:34;;;;;;;8.70;6.10;;;19.20;99.90;;;;;;5130109;27;20516;-69
2021/04/01 08:05:01;;;;;;;5.97;4.87;;;19.30;99.90;;;;;;5103075;28;20433;-67
2021/04/01 08:07:31;;;;;;;9.30;5.83;;;19.60;99.90;;;;;;5105440;27;20433;-67
2021/04/01 08:10:05;;;;;;;6.73;5.60;;;19.60;99.90;;;;;;5099058;27;20431;-67
2021/04/01 08:12:42;;;;;;;5.47;5.00;;;19.70;99.90;;;;;;5121644;27;20411;-67
2021/04/01 08:15:12;;;;;;;5.90;4.60;;;20.10;99.90;;;;;;5099253;27;20954;-68
2021/04/01 08:17:49;;;;;;;7.03;5.80;;;20.10;99.90;;;;;;5129505;27;20422;-69
2021/04/01 08:20:29;;;;;;;6.07;5.17;;;20.00;99.90;;;;;;5124353;27;20439;-69
2021/04/01 08:23:18;;;;;;;8.57;5.80;;;20.30;99.90;;;;;;5119039;27;20457;-67
2021/04/01 08:36:27;;;;;;;5.23;4.40;;;20.90;99.90;;;;;;5122311;27;20436;-67
2021/04/01 08:38:53;;;;;;;5.83;4.33;;;21.30;99.90;;;;;;5106572;28;20444;-70
2021/04/01 08:41:38;;;;;;;7.73;5.00;;;21.40;99.90;;;;;;5124058;27;20456;-67
2021/04/01 08:44:07;;;;;;;5.50;4.67;;;21.30;99.90;;;;;;5125506;27;20435;-67
2021/04/01 08:47:07;;;;;;;5.97;4.30;;;22.20;99.90;;;;;;5122496;27;20470;-67
2021/04/01 08:49:36;;;;;;;5.40;4.00;;;21.70;99.90;;;;;;5075779;27;20456;-67
2021/04/01 08:52:06;;;;;;;4.43;3.90;;;22.70;99.90;;;;;;5115254;27;20477;-69
2021/04/01 08:54:44;;;;;;;5.13;4.63;;;23.50;97.80;;;;;;5117012;27;20455;-68
2021/04/01 08:57:15;;;;;;;4.40;4.00;;;24.30;96.90;;;;;;5120716;27;20435;-68
2021/04/01 08:59:50;;;;;;;3.77;3.47;;;24.80;93.60;;;;;;5118909;27;20535;-68
2021/04/01 09:02:21;;;;;;;4.53;4.10;;;24.80;92.80;;;;;;5110114;27;20527;-69
2021/04/01 09:04:50;;;;;;;4.90;3.73;;;24.60;92.50;;;;;;5120395;27;20436;-68
2021/04/01 09:07:29;;;;;;;5.63;4.03;;;25.70;90.10;;;;;;5112617;27;20419;-68
2021/04/01 09:10:05;;;;;;;5.90;3.80;;;26.80;86.40;;;;;;5116709;27;20427;-68
2021/04/01 09:12:49;;;;;;;6.60;4.10;;;26.30;85.70;;;;;;5124689;27;20462;-68
2021/04/01 09:18:00;;;;;;;3.80;3.27;;;26.70;79.70;;;;;;5117045;27;20516;-68
2021/04/01 09:20:27;;;;;;;4.90;3.67;;;26.40;79.80;;;;;;5116251;27;20830;-66
2021/04/01 09:23:03;;;;;;;4.63;3.93;;;25.50;81.40;;;;;;5118353;27;20209;-68
2021/04/01 09:25:39;;;;;;;7.03;3.30;;;26.10;80.60;;;;;;5119748;27;20451;-66
2021/04/01 09:28:09;;;;;;;5.97;4.50;;;25.50;80.40;;;;;;5118724;27;20527;-67
2021/04/01 09:30:37;;;;;;;4.17;3.50;;;24.80;81.30;;;;;;5121153;27;20478;-66
2021/04/01 09:33:15;;;;;;;4.70;3.97;;;24.70;82.60;;;;;;5103483;27;20526;-66
2021/04/01 09:35:42;;;;;;;5.17;3.97;;;24.70;83.00;;;;;;5121399;27;20440;-66
2021/04/01 09:38:10;;;;;;;4.33;3.63;;;25.30;82.00;;;;;;5110760;27;20448;-66
2021/04/01 09:40:41;;;;;;;4.97;3.90;;;25.90;80.60;;;;;;5108520;27;20440;-66
2021/04/01 09:43:15;;;;;;;7.30;5.27;;;25.80;77.90;;;;;;5120118;27;20544;-67
2021/04/01 09:45:41;;;;;;;5.20;4.23;;;25.30;81.40;;;;;;5119230;27;20433;-67
2021/04/01 09:48:08;;;;;;;6.57;3.93;;;24.40;81.00;;;;;;5118017;27;20456;-69
2021/04/01 09:50:36;;;;;;;4.33;3.60;;;24.50;82.30;;;;;;5118657;27;21021;-67
2021/04/01 09:53:15;;;;;;;11.10;6.40;;;24.50;82.80;;;;;;5115256;27;21011;-67
2021/04/01 09:55:46;;;;;;;9.43;8.30;;;23.50;83.70;;;;;;5095718;27;20432;-68
2021/04/01 09:58:22;;;;;;;5.20;3.90;;;23.00;86.40;;;;;;5116727;27;20799;-67
2021/04/01 10:03:43;;;;;;;7.73;4.70;;;24.00;83.70;;;;;;5117883;27;20453;-68
2021/04/01 10:06:09;;;;;;;6.73;5.20;;;24.20;84.70;;;;;;5071870;27;20442;-67
2021/04/01 10:08:38;;;;;;;4.00;3.60;;;24.00;83.80;;;;;;5100285;27;20717;-69
2021/04/01 10:11:07;;;;;;;4.90;4.20;;;23.40;84.00;;;;;;5099464;28;20264;-68
2021/04/01 10:13:33;;;;;;;8.97;4.93;;;23.80;84.30;;;;;;5111421;27;20436;-68
2021/04/01 10:16:00;;;;;;;3.87;3.07;;;24.10;84.00;;;;;;5098045;28;20789;-68
2021/04/01 10:18:34;;;;;;;5.33;4.43;;;24.60;83.70;;;;;;5116556;27;20466;-69
2021/04/01 10:21:08;;;;;;;4.67;4.27;;;25.10;83.00;;;;;;5097711;28;20800;-68
2021/04/01 10:23:53;;;;;;;4.40;3.80;;;25.30;80.90;;;;;;5111344;27;20535;-68
2021/04/01 10:26:26;;;;;;;4.23;3.73;;;25.90;78.70;;;;;;5107889;27;20435;-68
2021/04/01 10:28:59;;;;;;;4.80;3.90;;;25.50;78.50;;;;;;5111039;27;20464;-68
2021/04/01 10:31:25;;;;;;;4.20;3.40;;;25.40;80.70;;;;;;5114585;27;20595;-68
2021/04/01 10:34:05;;;;;;;5.67;4.10;;;24.50;80.60;;;;;;5113773;27;20501;-69
2021/04/01 10:36:32;;;;;;;3.50;3.20;;;24.80;81.10;;;;;;5113416;27;20311;-69
2021/04/01 10:39:11;;;;;;;4.27;3.30;;;25.60;78.90;;;;;;5104453;27;20498;-68
2021/04/01 10:41:51;;;;;;;3.83;3.43;;;26.20;76.90;;;;;;5116802;27;20427;-69
2021/04/01 10:44:19;;;;;;;5.53;4.30;;;25.40;78.00;;;;;;5120377;28;20436;-68
2021/04/01 10:46:49;;;;;;;4.77;4.03;;;25.60;78.50;;;;;;5104160;28;20466;-68
2021/04/01 10:49:19;;;;;;;3.63;3.13;;;24.20;79.70;;;;;;5112890;28;20463;-69
2021/04/01 10:51:59;;;;;;;6.50;4.40;;;24.10;81.30;;;;;;5116107;28;20829;-68
2021/04/01 10:54:39;;;;;;;4.97;3.90;;;24.00;81.10;;;;;;5119224;28;20510;-67
2021/04/01 10:57:10;;;;;;;5.13;4.40;;;24.60;79.40;;;;;;5116465;28;21103;-67
2021/04/01 10:59:46;;;;;;;4.83;4.00;;;24.40;80.50;;;;;;5120759;28;20432;-68
2021/04/01 11:02:31;;;;;;;3.73;3.43;;;24.50;80.50;;;;;;5117360;28;20449;-69
2021/04/01 11:05:20;;;;;;;5.40;3.50;;;24.50;79.80;;;;;;5119687;28;20420;-69
2021/04/01 11:07:48;;;;;;;3.63;3.30;;;25.10;78.70;;;;;;5119156;28;20502;-69
2021/04/01 11:10:21;;;;;;;7.83;3.80;;;25.30;78.20;;;;;;5116617;28;20441;-68
2021/04/01 11:12:50;;;;;;;4.03;3.63;;;25.00;77.70;;;;;;5117816;27;20466;-69
2021/04/01 11:15:18;;;;;;;5.10;3.30;;;25.20;81.00;;;;;;5105626;28;20440;-67
2021/04/01 11:17:50;;;;;;;4.90;3.77;;;25.00;79.40;;;;;;5102432;27;20505;-68
2021/04/01 11:20:18;;;;;;;3.70;3.40;;;24.70;78.80;;;;;;5100380;27;20427;-66
2021/04/01 11:23:08;;;;;;;4.27;3.73;;;24.80;78.00;;;;;;5108433;28;20458;-67
2021/04/01 11:25:35;;;;;;;3.43;3.13;;;25.30;77.00;;;;;;5124223;27;20423;-70
2021/04/01 11:28:00;;;;;;;4.10;3.70;;;25.30;76.20;;;;;;5106254;27;20431;-69
2021/04/01 11:30:49;;;;;;;4.23;3.07;;;25.20;76.10;;;;;;5121548;27;20452;-69
2021/04/01 11:33:17;;;;;;;4.93;3.50;;;26.10;74.50;;;;;;5124061;27;20195;-69
2021/04/01 11:35:47;;;;;;;3.77;3.40;;;26.10;74.40;;;;;;5120233;27;20480;-65
2021/04/01 11:38:24;;;;;;;6.93;3.77;;;26.40;74.90;;;;;;5101954;28;21003;-66
2021/04/01 11:40:54;;;;;;;4.17;3.53;;;26.10;72.80;;;;;;5115872;27;20846;-66
2021/04/01 11:43:25;;;;;;;4.30;3.57;;;26.20;71.80;;;;;;5116627;27;20471;-67
2021/04/01 11:45:51;;;;;;;4.70;3.20;;;26.30;74.00;;;;;;5121090;27;20427;-71
2021/04/01 11:48:17;;;;;;;6.20;3.73;;;25.20;73.90;;;;;;5121861;27;20544;-67
2021/04/01 11:50:43;;;;;;;3.80;3.23;;;25.60;74.00;;;;;;5130017;27;20983;-67
2021/04/01 11:53:10;;;;;;;4.03;3.43;;;26.30;73.30;;;;;;5119221;27;20494;-69
2021/04/01 11:55:36;;;;;;;5.27;4.00;;;26.80;71.90;;;;;;5123549;27;20228;-69
2021/04/01 11:58:02;;;;;;;7.63;3.87;;;26.10;72.80;;;;;;5131956;27;20434;-68
2021/04/01 12:00:31;;;;;;;4.27;3.87;;;25.60;73.60;;;;;;5119638;27;20194;-67
2021/04/01 12:03:04;;;;;;;7.00;4.00;;;25.70;73.80;;;;;;5119277;27;20461;-69
2021/04/01 12:05:37;;;;;;;4.57;4.07;;;25.60;73.80;;;;;;5118912;27;20438;-68
2021/04/01 12:08:03;;;;;;;4.83;4.37;;;25.70;73.50;;;;;;5114221;27;20448;-67
2021/04/01 12:10:28;;;;;;;4.33;3.80;;;25.30;73.30;;;;;;5102063;27;20933;-67
2021/04/01 12:12:55;;;;;;;6.23;4.77;;;25.10;74.60;;;;;;5105474;27;20616;-68
2021/04/01 12:15:36;;;;;;;4.07;3.67;;;25.10;74.70;;;;;;5124223;27;20202;-67
2021/04/01 12:18:04;;;;;;;4.43;4.03;;;25.00;75.10;;;;;;5122191;27;20462;-67
2021/04/01 12:20:30;;;;;;;4.47;3.87;;;25.00;73.60;;;;;;5111762;27;20455;-66
2021/04/01 12:22:55;;;;;;;4.47;3.70;;;24.60;73.30;;;;;;5124272;27;20443;-67
2021/04/01 12:25:25;;;;;;;5.23;3.43;;;24.30;75.00;;;;;;5122881;27;20825;-67
2021/04/01 12:27:56;;;;;;;3.50;3.20;;;24.40;74.60;;;;;;5119842;27;20543;-68
2021/04/01 12:30:32;;;;;;;4.50;3.30;;;24.60;74.00;;;;;;5123904;27;20849;-67
2021/04/01 12:33:11;;;;;;;5.03;3.60;;;25.30;73.10;;;;;;5104999;27;20448;-67
2021/04/01 12:35:49;;;;;;;3.93;3.37;;;25.70;72.50;;;;;;5108998;27;20471;-67
2021/04/01 12:38:29;;;;;;;5.63;4.03;;;26.10;71.50;;;;;;5120483;27;20972;-66
2021/04/01 12:41:00;;;;;;;3.60;3.30;;;25.20;74.10;;;;;;5122355;27;20858;-68
2021/04/01 12:43:34;;;;;;;6.10;3.30;;;24.70;72.60;;;;;;5122373;27;20423;-68
2021/04/01 12:46:00;;;;;;;4.23;3.67;;;24.40;73.80;;;;;;5106405;27;20798;-68
2021/04/01 12:48:36;;;;;;;3.80;3.30;;;24.80;74.40;;;;;;5124058;27;20454;-68
2021/04/01 12:51:02;;;;;;;4.87;3.57;;;25.20;73.20;;;;;;5108896;27;20524;-67
2021/04/01 12:53:28;;;;;;;5.33;4.50;;;25.80;73.00;;;;;;5119395;27;20846;-68
2021/04/01 12:56:00;;;;;;;5.77;4.53;;;25.40;72.60;;;;;;5123881;27;20526;-66
2021/04/01 12:58:32;;;;;;;4.00;3.23;;;24.80;73.80;;;;;;5120871;27;20555;-67
2021/04/01 13:01:07;;;;;;;5.50;4.30;;;24.90;73.40;;;;;;5102801;27;20455;-68
2021/04/01 13:03:33;;;;;;;4.27;3.73;;;25.00;73.50;;;;;;5121563;27;20796;-67
2021/04/01 13:06:06;;;;;;;3.90;3.47;;;25.00;72.80;;;;;;5119785;27;20427;-67
2021/04/01 13:11:00;;;;;;;4.20;3.23;;;24.80;73.20;;;;;;5119285;27;20471;-67
2021/04/01 13:13:26;;;;;;;4.10;3.10;;;25.20;72.00;;;;;;5102571;27;20432;-68
2021/04/01 13:15:52;;;;;;;3.40;2.77;;;25.20;71.20;;;;;;5120266;27;20905;-68
2021/04/01 13:18:17;;;;;;;5.50;4.37;;;25.20;72.50;;;;;;5101625;27;20465;-67
2021/04/01 13:20:43;;;;;;;4.60;3.40;;;24.60;72.60;;;;;;5120939;27;20191;-68
2021/04/01 13:23:12;;;;;;;5.10;4.23;;;25.00;72.80;;;;;;5106674;27;20257;-69
2021/04/01 13:25:38;;;;;;;5.30;4.80;;;25.70;72.80;;;;;;5119449;27;20435;-68
2021/04/01 13:28:08;;;;;;;5.70;3.80;;;25.70;71.30;;;;;;5119585;27;20435;-68
2021/04/01 13:30:35;;;;;;;4.50;3.63;;;24.70;72.50;;;;;;5108421;27;20283;-68
2021/04/01 13:40:38;;;;;;;4.40;3.73;;;25.60;71.30;;;;;;5124288;27;20448;-68
2021/04/01 13:43:04;;;;;;;9.50;4.67;;;24.90;72.00;;;;;;5119697;27;20191;-68
2021/04/01 13:45:30;;;;;;;3.50;3.20;;;24.70;72.50;;;;;;5114286;27;20859;-69
2021/04/01 13:48:02;;;;;;;3.67;3.00;;;25.20;72.90;;;;;;5112249;27;20515;-68
2021/04/01 13:50:31;;;;;;;4.97;4.07;;;25.50;72.30;;;;;;5106270;27;20708;-71
2021/04/01 13:55:42;;;;;;;3.60;2.90;;;25.70;70.50;;;;;;5119446;27;20428;-69
2021/04/01 14:11:29;;;;;;;3.90;3.50;;;25.70;69.80;;;;;;5120987;27;20988;-68
2021/04/01 14:13:56;;;;;;;3.20;2.90;;;25.60;69.80;;;;;;5114387;27;20451;-68
2021/04/01 14:16:21;;;;;;;3.60;3.30;;;25.10;70.60;;;;;;5123516;27;20183;-67
2021/04/01 14:18:50;;;;;;;4.00;3.30;;;24.70;71.60;;;;;;5117115;27;20947;-68
2021/04/01 14:21:18;;;;;;;5.80;4.60;;;24.80;71.30;;;;;;5117668;27;20198;-68
2021/04/01 14:23:45;;;;;;;4.80;3.23;;;25.10;71.10;;;;;;5117892;27;20442;-68
2021/04/01 14:26:23;;;;;;;3.20;2.90;;;25.30;71.10;;;;;;5094005;27;20488;-68
2021/04/01 14:28:50;;;;;;;3.83;3.47;;;25.40;71.50;;;;;;5110472;27;20443;-67
2021/04/01 14:31:17;;;;;;;3.97;3.60;;;25.40;69.70;;;;;;5113046;27;20695;-68
2021/04/01 14:33:44;;;;;;;4.10;3.70;;;25.60;69.50;;;;;;5116112;27;20884;-67
2021/04/01 14:36:12;;;;;;;3.60;3.00;;;25.40;70.30;;;;;;5112905;27;20854;-68
2021/04/01 14:38:40;;;;;;;2.93;2.63;;;25.40;70.30;;;;;;5114639;27;20815;-68
2021/04/01 14:43:40;;;;;;;3.43;3.13;;;25.40;70.30;;;;;;5127639;27;20544;-68
2021/04/01 14:46:06;;;;;;;3.53;3.23;;;25.30;70.00;;;;;;5110110;28;20461;-67
2021/04/01 14:48:32;;;;;;;3.90;3.47;;;25.40;69.80;;;;;;5127615;28;20948;-68
2021/04/01 14:50:59;;;;;;;3.50;3.13;;;25.30;69.10;;;;;;5128410;28;20497;-67
2021/04/01 14:55:56;;;;;;;4.40;2.90;;;24.80;70.10;;;;;;5127993;28;20435;-68